Aviation Digital Data Service (ADDS)

Output produced by METARs form (0742 UTC 26 April 2018)
found at http://aviationweather.gov/adds/metars/
 
KJFK 260653Z 2607/2712 26006KT 4SM BR SCT005 OVC050 
     FM261000 29011KT P6SM SCT250 
     FM261300 28014G21KT P6SM SCT250 
     FM261700 25015G22KT P6SM FEW250 
     FM262300 23010KT P6SM SKC 
     FM270300 VRB05KT P6SM SKC 
     FM270900 12005KT P6SM SCT250